Sibi Weather



Sibi's Current Weather

Temprature 45.2o few clouds

few clouds

Rain: 0 %

Min Temprature45.2o
Max Temprature45.2o
Humidity15
Wind Speed2.9 m/h
Sun Rise05:43:25
Sun Set19:26:15
Current Time: 24-Jul-2021 16:14:02
Lat/Lon: 29.5448, 67.8764




Sibi's Geo Location



Sibi's Weather Forecast

Time Overall Temp Min Temp Max Temp Humidity Wind Speed Rain
24-Jul-2021 (Sat)
17:00:00 few clouds 45.230 45.230 45.230 15 2.8 m/h 0 %
20:00:00 few clouds 43.980 41.480 43.980 18 8.52 m/h 0 %
23:00:00 few clouds 41.090 39.020 41.090 26 5.25 m/h 0 %
25-Jul-2021 (Sun)
02:00:00 scattered clouds 37.670 37.670 37.670 33 1.25 m/h 0 %
05:00:00 few clouds 36.360 36.360 36.360 35 1.23 m/h 0 %
08:00:00 clear sky 37.810 37.810 37.810 32 1.76 m/h 0 %
11:00:00 clear sky 41.040 41.040 41.040 27 1.77 m/h 0 %
14:00:00 clear sky 45.030 45.030 45.030 19 3.34 m/h 0 %
17:00:00 clear sky 46.350 46.350 46.350 15 3.82 m/h 0 %
20:00:00 few clouds 44.000 44.000 44.000 18 4.06 m/h 0 %
23:00:00 few clouds 41.720 41.720 41.720 21 3.18 m/h 0 %
26-Jul-2021 (Mon)
02:00:00 clear sky 38.680 38.680 38.680 32 5.04 m/h 0 %
05:00:00 clear sky 36.480 36.480 36.480 42 2.96 m/h 0 %
08:00:00 clear sky 36.610 36.610 36.610 43 3.1 m/h 0 %
11:00:00 scattered clouds 39.900 39.900 39.900 34 2.41 m/h 0 %
14:00:00 overcast clouds 43.660 43.660 43.660 25 3.17 m/h 0 %
17:00:00 broken clouds 45.430 45.430 45.430 21 3.82 m/h 0 %
20:00:00 clear sky 43.680 43.680 43.680 22 3.86 m/h 0 %
23:00:00 broken clouds 40.620 40.620 40.620 30 8.44 m/h 0 %
27-Jul-2021 (Tue)
02:00:00 broken clouds 37.230 37.230 37.230 41 5.26 m/h 0 %
05:00:00 broken clouds 35.170 35.170 35.170 48 3.43 m/h 0 %
08:00:00 scattered clouds 34.910 34.910 34.910 50 4.74 m/h 0 %
11:00:00 broken clouds 38.090 38.090 38.090 41 2.86 m/h 0 %
14:00:00 overcast clouds 42.440 42.440 42.440 30 3.72 m/h 0 %
17:00:00 broken clouds 44.120 44.120 44.120 25 5.27 m/h 0 %
20:00:00 overcast clouds 41.860 41.860 41.860 30 6.72 m/h 0 %
23:00:00 overcast clouds 37.070 37.070 37.070 43 9.19 m/h 0 %
28-Jul-2021 (Wed)
02:00:00 overcast clouds 34.440 34.440 34.440 51 3.77 m/h 0 %
05:00:00 overcast clouds 33.290 33.290 33.290 55 3.49 m/h 0 %
08:00:00 broken clouds 33.750 33.750 33.750 54 3.58 m/h 0 %
11:00:00 broken clouds 37.210 37.210 37.210 44 3.05 m/h 0 %
14:00:00 scattered clouds 41.180 41.180 41.180 33 3.32 m/h 0 %
17:00:00 broken clouds 43.270 43.270 43.270 27 4.61 m/h 0 %
20:00:00 scattered clouds 41.470 41.470 41.470 30 6.11 m/h 0 %
23:00:00 light rain 38.530 38.530 38.530 37 5.5 m/h 66 %
29-Jul-2021 (Thu)
02:00:00 light rain 34.620 34.620 34.620 51 6.67 m/h 31 %
05:00:00 light rain 33.430 33.430 33.430 55 1.57 m/h 13 %
08:00:00 overcast clouds 34.450 34.450 34.450 52 1.98 m/h 0 %
11:00:00 overcast clouds 38.090 38.090 38.090 41 2.85 m/h 0 %
14:00:00 overcast clouds 41.470 41.470 41.470 33 4.24 m/h 0 %

Famous Cities (60)